Mairena del Aljarafe, Spain
Current Conditions -  °F | °C
As of 7:30 AM on Friday 28 Nov 2014 (Local Time) from LEZL Reporting Station
Light Rain Light Rain  
Wind Chill: 55°   Ceiling: 3000
Heat Index: 55°   Visibility: 6mi
Dew Point: 54°   Wind: 6mph
Humidity: 94%   Direction: 190°S
Pressure: 29.03"   Gusts: NA
Location:  37.34°N, 6.06°W
Report Text: LEZL 280630Z 19005KT 140V250 9999 -RA SCT008 BKN030 FEW033TCU 13/12 Q0983 NOSIG
Loading
Personal Weather Stations






























Interactive Weather Map New forecast layout! Learn more

10-Day Weather Forecast

Advertisements
Track Severe Weather on mobile